Time;durP1;ratioP1;P1;durP2;ratioP2;P2;SDS_P1;SDS_P2;PMS_P1;PMS_P2;Temp;Humidity;BMP_temperature;BMP_pressure;BME280_temperature;BME280_humidity;BME280_pressure;Samples;Min_cycle;Max_cycle;Signal;HPM_P1;HPM_P2
2023/05/05 00:01:31;;;;;;;11.38;6.40;;;;;;;15.48;74.72;101664.41;6052577;19;20010;-71
2023/05/05 00:03:43;;;;;;;9.32;5.53;;;;;;;15.51;74.46;101659.84;6049402;19;20282;-71
2023/05/05 00:05:48;;;;;;;13.85;5.82;;;;;;;15.43;74.52;101658.47;6049121;19;20506;-71
2023/05/05 00:07:53;;;;;;;9.13;4.57;;;;;;;15.41;73.98;101655.94;6050103;19;20482;-71
2023/05/05 00:09:59;;;;;;;7.78;4.38;;;;;;;15.43;73.51;101639.94;6048656;19;20669;-71
2023/05/05 00:12:06;;;;;;;8.63;4.40;;;;;;;15.37;73.20;101634.00;6049404;19;20181;-71
2023/05/05 00:14:13;;;;;;;9.18;4.70;;;;;;;15.41;72.64;101633.88;6048628;19;20512;-71
2023/05/05 00:16:19;;;;;;;7.30;4.32;;;;;;;15.42;72.40;101625.00;6047755;19;20019;-71
2023/05/05 00:18:25;;;;;;;8.32;4.13;;;;;;;15.36;72.43;101636.75;6047177;19;20015;-72
2023/05/05 00:20:33;;;;;;;6.78;4.10;;;;;;;15.34;72.30;101628.00;6045628;19;20636;-71
2023/05/05 00:22:38;;;;;;;8.95;4.35;;;;;;;15.32;72.45;101622.81;6044334;19;20282;-71
2023/05/05 00:24:45;;;;;;;9.18;4.50;;;;;;;15.29;72.53;101625.56;6048066;19;20024;-71
2023/05/05 00:26:50;;;;;;;7.78;4.38;;;;;;;15.28;71.98;101618.56;6051283;19;20014;-71
2023/05/05 00:28:56;;;;;;;8.73;3.95;;;;;;;15.26;72.32;101616.94;6048866;19;20011;-71
2023/05/05 00:31:01;;;;;;;6.93;3.63;;;;;;;15.25;71.93;101618.72;6043469;19;20488;-71
2023/05/05 00:33:06;;;;;;;7.22;4.35;;;;;;;15.26;71.33;101609.84;6047529;19;20451;-72
2023/05/05 00:35:12;;;;;;;8.40;3.97;;;;;;;15.26;71.76;101603.69;6044981;19;20017;-71
2023/05/05 00:37:23;;;;;;;7.75;3.70;;;;;;;15.21;71.56;101601.25;6047689;19;24472;-71
2023/05/05 00:39:28;;;;;;;6.60;3.88;;;;;;;15.18;71.78;101601.41;6049893;19;20017;-70
2023/05/05 00:41:34;;;;;;;6.88;3.28;;;;;;;15.18;72.11;101611.16;6049328;19;20068;-72
2023/05/05 00:43:41;;;;;;;6.97;3.10;;;;;;;15.14;71.85;101611.28;6049983;19;20014;-73
2023/05/05 00:45:46;;;;;;;8.20;3.60;;;;;;;15.14;72.34;101623.69;6047184;19;20021;-72
2023/05/05 00:47:56;;;;;;;6.93;3.42;;;;;;;15.12;72.70;101621.09;6051979;19;20072;-72
2023/05/05 00:50:01;;;;;;;7.50;3.60;;;;;;;15.14;73.95;101618.38;6043853;19;20579;-72
2023/05/05 00:52:07;;;;;;;7.10;3.63;;;;;;;15.07;75.80;101615.16;6043370;19;20254;-74
2023/05/05 00:54:15;;;;;;;7.72;3.65;;;;;;;15.04;77.41;101630.34;6044969;19;20558;-73
2023/05/05 00:56:26;;;;;;;9.10;3.80;;;;;;;15.01;77.35;101633.09;6045155;19;20015;-73
2023/05/05 00:58:31;;;;;;;8.07;3.42;;;;;;;15.02;77.05;101638.34;6049975;19;20252;-73
2023/05/05 01:00:37;;;;;;;7.20;3.10;;;;;;;15.01;77.67;101641.91;6048960;19;20507;-72
2023/05/05 01:02:42;;;;;;;8.40;3.97;;;;;;;14.93;77.92;101644.06;6049316;19;20479;-73
2023/05/05 01:04:48;;;;;;;7.15;3.88;;;;;;;14.80;79.18;101643.75;6045111;19;20010;-72
2023/05/05 01:07:05;;;;;;;8.80;3.95;;;;;;;14.73;79.16;101642.31;6048987;19;20479;-73
2023/05/05 01:09:21;;;;;;;9.77;4.30;;;;;;;14.68;79.08;101639.88;6043214;19;20559;-72
2023/05/05 01:11:37;;;;;;;7.43;3.72;;;;;;;14.62;78.81;101644.59;6047109;19;20007;-74
2023/05/05 01:13:51;;;;;;;7.40;3.65;;;;;;;14.55;80.17;101646.63;6048516;19;20349;-74
2023/05/05 01:16:03;;;;;;;7.68;3.83;;;;;;;14.47;79.60;101649.56;6047973;19;20036;-73
2023/05/05 01:18:19;;;;;;;6.85;3.70;;;;;;;14.40;80.01;101647.25;6054027;19;20014;-74
2023/05/05 01:20:31;;;;;;;6.85;3.40;;;;;;;14.36;79.03;101638.63;6052433;19;20293;-73
2023/05/05 01:22:43;;;;;;;6.22;3.80;;;;;;;14.29;80.21;101634.50;6051815;19;20045;-72
2023/05/05 01:25:05;;;;;;;7.00;3.70;;;;;;;14.26;80.86;101645.22;6055353;19;20500;-72
2023/05/05 01:27:36;;;;;;;7.45;3.92;;;;;;;14.18;81.73;101655.28;6051149;19;20086;-72
2023/05/05 01:30:01;;;;;;;8.48;3.72;;;;;;;14.13;81.30;101667.81;6048780;19;20444;-73
2023/05/05 01:32:12;;;;;;;7.32;3.70;;;;;;;13.99;81.11;101669.25;6059370;19;20547;-72
2023/05/05 01:34:20;;;;;;;7.50;3.33;;;;;;;13.97;80.54;101663.16;6052519;19;20285;-74
2023/05/05 01:36:32;;;;;;;7.53;3.80;;;;;;;13.89;81.02;101664.41;6052388;19;20589;-73
2023/05/05 01:38:46;;;;;;;8.55;3.53;;;;;;;13.80;81.18;101665.66;6052649;19;20223;-72
2023/05/05 01:40:55;;;;;;;8.90;4.03;;;;;;;13.76;80.94;101669.34;6054722;19;20006;-72
2023/05/05 01:43:02;;;;;;;6.80;3.85;;;;;;;13.71;81.75;101666.03;6047907;19;20397;-72
2023/05/05 01:45:11;;;;;;;6.60;3.95;;;;;;;13.70;81.56;101670.44;6052686;19;20010;-71
2023/05/05 01:47:22;;;;;;;7.97;3.90;;;;;;;13.63;81.18;101673.41;6051521;19;20544;-72
2023/05/05 01:49:32;;;;;;;8.10;3.55;;;;;;;13.58;82.27;101671.78;6051335;19;20522;-72
2023/05/05 01:51:40;;;;;;;8.50;4.30;;;;;;;13.59;83.16;101670.88;6049124;19;20396;-72
2023/05/05 01:53:46;;;;;;;9.13;4.03;;;;;;;13.65;82.33;101676.84;6047743;19;20276;-72
2023/05/05 01:55:52;;;;;;;9.70;4.45;;;;;;;13.54;83.21;101667.56;6047779;19;20010;-72
2023/05/05 01:58:02;;;;;;;8.30;4.28;;;;;;;13.48;82.25;101673.09;6048719;19;20041;-72
2023/05/05 02:00:10;;;;;;;7.65;4.38;;;;;;;13.43;83.79;101672.41;6049219;19;20498;-72
2023/05/05 02:02:21;;;;;;;8.98;4.85;;;;;;;13.40;82.64;101675.16;6050329;19;20305;-72
2023/05/05 02:04:30;;;;;;;10.07;4.43;;;;;;;13.37;82.68;101683.19;6047112;19;20504;-73
2023/05/05 02:06:39;;;;;;;10.32;4.38;;;;;;;13.44;83.75;101676.75;6046178;19;20167;-72
2023/05/05 02:08:46;;;;;;;11.15;5.20;;;;;;;13.34;83.09;101673.63;6044906;19;20503;-72
2023/05/05 02:10:52;;;;;;;12.75;5.63;;;;;;;13.27;82.84;101676.53;6047248;19;20010;-72
2023/05/05 02:12:59;;;;;;;9.65;4.10;;;;;;;13.23;83.13;101672.28;6042541;19;20010;-71
2023/05/05 02:15:06;;;;;;;10.38;4.63;;;;;;;13.16;83.47;101675.16;6045898;19;20366;-72
2023/05/05 02:17:13;;;;;;;9.82;4.45;;;;;;;13.08;83.82;101679.84;6050393;19;20611;-72
2023/05/05 02:19:24;;;;;;;8.95;4.53;;;;;;;13.05;84.14;101682.59;6048426;19;20195;-72
2023/05/05 02:21:29;;;;;;;8.60;4.20;;;;;;;13.03;84.42;101679.16;6055885;19;20495;-72
2023/05/05 02:23:38;;;;;;;9.30;4.53;;;;;;;13.01;84.50;101688.94;6058177;19;20385;-72
2023/05/05 02:25:47;;;;;;;10.75;5.43;;;;;;;12.96;84.59;101694.38;6057808;19;20300;-71
2023/05/05 02:27:58;;;;;;;10.18;4.38;;;;;;;12.97;85.09;101689.94;6057610;19;20544;-72
2023/05/05 02:30:09;;;;;;;10.53;4.83;;;;;;;12.92;85.14;101690.13;6058092;19;20085;-71
2023/05/05 02:32:20;;;;;;;10.68;5.00;;;;;;;12.91;85.55;101692.81;6055662;19;20015;-73
2023/05/05 02:34:29;;;;;;;10.75;5.30;;;;;;;12.87;84.85;101693.84;6055059;19;20325;-71
2023/05/05 02:36:41;;;;;;;15.85;5.63;;;;;;;12.81;84.37;101687.00;6058687;19;20039;-71
2023/05/05 02:38:50;;;;;;;10.57;5.00;;;;;;;12.77;84.99;101681.91;6058370;19;20025;-72
2023/05/05 02:40:59;;;;;;;13.38;5.57;;;;;;;12.72;84.88;101685.59;6058595;19;20064;-72
2023/05/05 02:43:09;;;;;;;14.30;6.03;;;;;;;12.72;85.16;101692.63;6055464;19;20345;-72
2023/05/05 02:45:19;;;;;;;10.85;5.40;;;;;;;12.73;85.21;101689.94;6052391;19;20094;-71
2023/05/05 02:47:29;;;;;;;12.77;5.45;;;;;;;12.74;86.32;101691.66;6056975;19;20304;-71
2023/05/05 02:49:41;;;;;;;14.32;5.93;;;;;;;12.76;86.83;101696.00;6058214;19;20382;-71
2023/05/05 02:51:46;;;;;;;16.42;6.50;;;;;;;12.78;87.81;101699.47;6057044;19;20479;-73
2023/05/05 02:53:52;;;;;;;13.60;6.25;;;;;;;12.75;87.31;101700.44;6052564;19;20488;-72
2023/05/05 02:56:04;;;;;;;15.65;6.82;;;;;;;12.77;87.37;101700.34;6053149;19;20003;-72
2023/05/05 02:58:15;;;;;;;18.75;8.15;;;;;;;12.72;86.65;101711.94;6054670;19;20527;-74
2023/05/05 03:00:26;;;;;;;;;;;;;;;12.68;87.77;101712.97;6057135;19;20721;-73
2023/05/05 03:02:42;;;;;;;20.15;7.93;;;;;;;12.63;87.73;101707.00;6050059;19;20176;-73
2023/05/05 03:04:54;;;;;;;15.48;8.40;;;;;;;12.63;87.20;101703.50;6052626;19;20036;-73
2023/05/05 03:07:05;;;;;;;25.30;9.45;;;;;;;12.64;88.56;101706.09;6048057;19;20417;-73
2023/05/05 03:09:14;;;;;;;21.35;9.65;;;;;;;12.59;88.72;101697.47;6054617;19;20017;-73
2023/05/05 03:11:25;;;;;;;23.80;10.02;;;;;;;12.59;88.21;101700.13;6052845;19;20403;-72
2023/05/05 03:13:32;;;;;;;26.05;11.00;;;;;;;12.57;88.26;101686.13;6049344;19;20018;-72
2023/05/05 03:15:44;;;;;;;30.50;11.02;;;;;;;12.51;89.03;101684.56;6047649;19;20491;-73
2023/05/05 03:17:53;;;;;;;30.73;13.13;;;;;;;12.54;89.20;101675.69;6048415;19;20119;-72
2023/05/05 03:20:02;;;;;;;32.28;14.15;;;;;;;12.50;89.17;101668.78;6046197;19;20328;-72
2023/05/05 03:22:08;;;;;;;36.90;15.30;;;;;;;12.48;88.98;101678.50;6049521;19;20507;-72
2023/05/05 03:24:18;;;;;;;34.60;15.27;;;;;;;12.49;89.47;101678.47;6050583;19;20011;-72
2023/05/05 03:26:25;;;;;;;39.47;16.40;;;;;;;12.48;89.74;101683.78;6052569;19;20059;-72
2023/05/05 03:28:30;;;;;;;40.78;16.35;;;;;;;12.45;89.76;101695.34;6048762;19;20045;-72
2023/05/05 03:30:37;;;;;;;41.25;18.33;;;;;;;12.46;90.40;101693.56;6052455;19;20420;-72
2023/05/05 03:32:43;;;;;;;43.28;17.48;;;;;;;12.44;89.66;101690.09;6052971;19;20702;-72
2023/05/05 03:34:48;;;;;;;48.13;18.48;;;;;;;12.45;91.07;101691.81;6053844;19;20395;-72
2023/05/05 03:36:56;;;;;;;46.28;19.55;;;;;;;12.48;90.50;101681.16;6057251;19;20225;-73
2023/05/05 03:39:01;;;;;;;48.00;19.50;;;;;;;12.41;90.03;101682.31;6045897;19;20019;-72
2023/05/05 03:41:06;;;;;;;58.85;19.70;;;;;;;12.39;90.98;101681.50;6051728;19;20010;-72
2023/05/05 03:43:12;;;;;;;49.90;20.55;;;;;;;12.37;90.25;101689.44;6053037;19;20002;-73
2023/05/05 03:45:17;;;;;;;51.72;22.20;;;;;;;12.39;90.72;101692.03;6048544;19;20034;-72
2023/05/05 03:47:28;;;;;;;52.63;21.60;;;;;;;12.33;90.84;101694.88;6050806;19;20422;-72
2023/05/05 03:49:34;;;;;;;52.92;20.60;;;;;;;12.40;91.65;101701.66;6053200;19;20014;-71
2023/05/05 03:51:43;;;;;;;51.15;23.02;;;;;;;12.40;91.75;101699.00;6052170;19;20553;-74
2023/05/05 03:53:50;;;;;;;54.67;23.95;;;;;;;12.40;91.58;101704.28;6052973;19;20023;-72
2023/05/05 03:55:58;;;;;;;54.47;23.17;;;;;;;12.34;91.95;101705.34;6051845;19;20014;-72
2023/05/05 03:58:05;;;;;;;56.10;20.90;;;;;;;12.34;91.70;101709.78;6052841;19;20208;-72
2023/05/05 04:00:14;;;;;;;60.10;23.10;;;;;;;12.35;92.55;101706.22;6055976;19;20448;-72
2023/05/05 04:02:20;;;;;;;53.17;22.77;;;;;;;12.38;91.85;101709.63;6056758;19;20468;-72
2023/05/05 04:04:26;;;;;;;57.10;23.75;;;;;;;12.35;91.80;101711.50;6062972;19;20205;-71
2023/05/05 04:06:31;;;;;;;59.55;23.48;;;;;;;12.34;92.17;101710.63;6053955;19;20684;-71
2023/05/05 04:08:37;;;;;;;60.70;23.25;;;;;;;12.34;92.29;101709.78;6053998;19;20476;-71
2023/05/05 04:10:45;;;;;;;57.08;22.42;;;;;;;12.32;91.79;101722.13;6052230;19;20380;-72
2023/05/05 04:12:50;;;;;;;51.22;21.88;;;;;;;12.34;92.17;101726.44;6053332;19;20002;-72
2023/05/05 04:14:58;;;;;;;48.22;20.27;;;;;;;12.29;91.88;101731.00;6058492;19;20045;-71
2023/05/05 04:17:05;;;;;;;47.88;20.55;;;;;;;12.30;92.45;101723.06;6054052;19;20458;-73
2023/05/05 04:19:11;;;;;;;44.65;19.85;;;;;;;12.24;92.25;101725.03;6060779;19;20456;-72
2023/05/05 04:21:19;;;;;;;46.70;21.73;;;;;;;12.20;92.16;101726.06;6055651;19;20424;-72
2023/05/05 04:23:24;;;;;;;45.15;20.25;;;;;;;12.17;92.27;101737.56;6054974;19;20852;-72
2023/05/05 04:25:29;;;;;;;35.35;18.83;;;;;;;12.15;92.55;101734.09;6053975;19;20040;-72
2023/05/05 04:27:37;;;;;;;43.83;18.80;;;;;;;12.12;92.48;101734.22;6050015;19;20017;-73
2023/05/05 04:29:43;;;;;;;37.80;18.67;;;;;;;12.10;92.71;101730.75;6049836;19;20589;-72
2023/05/05 04:31:48;;;;;;;39.63;20.13;;;;;;;12.10;92.62;101743.94;6051800;19;20487;-73
2023/05/05 04:33:53;;;;;;;37.53;18.95;;;;;;;12.10;92.86;101737.81;6054246;19;20021;-73
2023/05/05 04:35:59;;;;;;;37.03;18.90;;;;;;;12.08;92.22;101738.72;6052505;19;20293;-72
2023/05/05 04:38:05;;;;;;;41.72;21.25;;;;;;;12.07;93.21;101738.78;6052146;19;20007;-73
2023/05/05 04:40:12;;;;;;;33.13;18.42;;;;;;;12.09;93.31;101742.22;6053819;19;20464;-72
2023/05/05 04:42:17;;;;;;;35.33;18.73;;;;;;;12.13;93.33;101738.56;6045602;19;20010;-72
2023/05/05 04:44:25;;;;;;;35.38;19.63;;;;;;;12.13;93.38;101741.19;6053497;19;20035;-72
2023/05/05 04:46:33;;;;;;;33.50;17.73;;;;;;;12.16;93.32;101740.22;6053934;19;20023;-72
2023/05/05 04:48:38;;;;;;;37.78;18.48;;;;;;;12.18;93.62;101735.78;6052043;19;20002;-72
2023/05/05 04:50:44;;;;;;;31.75;16.90;;;;;;;12.16;93.15;101733.19;6053362;19;20341;-72
2023/05/05 04:52:49;;;;;;;34.13;16.73;;;;;;;12.16;94.07;101735.81;6050572;19;20449;-73
2023/05/05 04:54:56;;;;;;;34.67;18.23;;;;;;;12.16;92.92;101733.19;6051304;19;20719;-72
2023/05/05 04:57:02;;;;;;;32.33;17.95;;;;;;;12.17;93.33;101734.94;6052966;19;20586;-73
2023/05/05 04:59:08;;;;;;;34.78;17.92;;;;;;;12.17;93.16;101734.94;6055739;19;20457;-72
2023/05/05 05:01:15;;;;;;;32.45;16.70;;;;;;;12.25;93.72;101737.31;6056199;19;20623;-72
2023/05/05 05:03:21;;;;;;;32.58;17.33;;;;;;;12.31;93.22;101742.38;6055963;19;20569;-69
2023/05/05 05:05:26;;;;;;;32.65;17.38;;;;;;;12.38;93.50;101743.91;6050346;19;20324;-69
2023/05/05 05:07:31;;;;;;;35.58;17.63;;;;;;;12.47;92.93;101753.25;6053937;19;20760;-71
2023/05/05 05:09:37;;;;;;;32.28;19.27;;;;;;;12.56;93.22;101745.06;6052039;19;20483;-69
2023/05/05 05:11:42;;;;;;;29.38;16.02;;;;;;;12.56;92.79;101750.31;6055521;19;20039;-69
2023/05/05 05:13:47;;;;;;;31.70;17.45;;;;;;;12.62;92.62;101757.16;6051769;19;20011;-69
2023/05/05 05:15:56;;;;;;;28.15;15.02;;;;;;;12.82;92.30;101761.72;6053967;19;20018;-69
2023/05/05 05:18:04;;;;;;;32.33;16.67;;;;;;;13.07;91.21;101757.31;6053916;19;20094;-69
2023/05/05 05:20:10;;;;;;;31.95;17.58;;;;;;;13.27;90.61;101764.53;6054600;19;20502;-69
2023/05/05 05:22:15;;;;;;;33.90;17.70;;;;;;;13.49;89.71;101761.09;6051869;19;20383;-69
2023/05/05 05:24:21;;;;;;;33.20;17.67;;;;;;;13.67;89.08;101765.66;6050491;19;20126;-69
2023/05/05 05:26:27;;;;;;;32.83;18.38;;;;;;;13.80;87.83;101771.34;6051104;19;20069;-69
2023/05/05 05:28:32;;;;;;;35.05;19.58;;;;;;;13.91;87.33;101758.56;6050147;19;20015;-69
2023/05/05 05:30:37;;;;;;;32.55;17.52;;;;;;;14.16;87.32;101760.19;6053603;19;20007;-69
2023/05/05 05:32:42;;;;;;;33.05;19.08;;;;;;;14.39;86.52;101760.13;6053592;19;20300;-69
2023/05/05 05:34:50;;;;;;;32.22;19.58;;;;;;;14.52;85.25;101756.97;6052862;19;20342;-69
2023/05/05 05:36:55;;;;;;;32.65;17.88;;;;;;;14.59;84.82;101750.53;6047506;19;20014;-70
2023/05/05 05:39:01;;;;;;;35.80;19.95;;;;;;;14.96;83.82;101751.59;6039149;19;20178;-69
2023/05/05 05:41:12;;;;;;;31.85;19.75;;;;;;;15.20;82.30;101749.63;6049420;19;20278;-69
2023/05/05 05:43:18;;;;;;;34.28;18.05;;;;;;;15.42;81.40;101754.78;6049224;19;20034;-71
2023/05/05 05:45:23;;;;;;;36.88;18.75;;;;;;;15.50;81.35;101750.84;6046663;19;20517;-69
2023/05/05 05:47:28;;;;;;;33.50;19.08;;;;;;;15.43;80.55;101757.38;6044714;19;20285;-69
2023/05/05 05:49:35;;;;;;;38.20;19.27;;;;;;;15.21;81.67;101773.34;6047114;19;20052;-69
2023/05/05 05:51:43;;;;;;;33.78;18.23;;;;;;;15.27;80.74;101770.47;6044092;19;20025;-71
2023/05/05 05:53:48;;;;;;;33.22;17.70;;;;;;;14.95;81.23;101778.94;6051469;19;20436;-70
2023/05/05 05:55:53;;;;;;;38.42;18.83;;;;;;;15.06;82.01;101787.28;6055008;19;20536;-70
2023/05/05 05:57:59;;;;;;;36.97;18.95;;;;;;;15.34;81.02;101787.75;6053921;19;20352;-71
2023/05/05 06:00:05;;;;;;;35.28;20.10;;;;;;;15.75;79.16;101781.53;6052576;19;20028;-70
2023/05/05 06:02:11;;;;;;;34.22;18.48;;;;;;;15.69;78.72;101781.81;6053737;19;20007;-70
2023/05/05 06:04:16;;;;;;;29.63;18.25;;;;;;;15.55;79.59;101793.03;6055155;19;20298;-70
2023/05/05 06:06:21;;;;;;;37.67;19.73;;;;;;;15.61;79.42;101789.22;6055343;19;20273;-71
2023/05/05 06:08:29;;;;;;;35.28;19.05;;;;;;;15.70;79.54;101792.34;6056345;19;20373;-70
2023/05/05 06:10:35;;;;;;;38.22;18.98;;;;;;;15.73;78.82;101800.16;6055802;19;20014;-71
2023/05/05 06:12:40;;;;;;;35.40;18.77;;;;;;;15.77;79.03;101806.16;6054232;19;20198;-71
2023/05/05 06:14:46;;;;;;;38.60;19.27;;;;;;;15.57;79.66;101796.47;6049377;19;20324;-69
2023/05/05 06:16:54;;;;;;;34.10;19.77;;;;;;;15.48;79.90;101807.47;6054882;19;20003;-70
2023/05/05 06:18:59;;;;;;;45.58;22.40;;;;;;;15.44;80.03;101805.91;6050012;19;20502;-69
2023/05/05 06:21:04;;;;;;;37.85;20.17;;;;;;;15.37;80.95;101806.16;6050975;19;20693;-69
2023/05/05 06:23:10;;;;;;;32.88;18.58;;;;;;;15.47;80.70;101809.25;6047028;19;20760;-69
2023/05/05 06:25:18;;;;;;;42.38;20.10;;;;;;;15.49;80.13;101811.84;6048465;19;20010;-69
2023/05/05 06:27:23;;;;;;;39.65;20.45;;;;;;;15.61;80.59;101816.56;6054497;19;20014;-69
2023/05/05 06:29:28;;;;;;;36.88;20.83;;;;;;;15.74;80.19;101806.31;6054327;19;20780;-69
2023/05/05 06:31:35;;;;;;;35.47;18.92;;;;;;;15.97;79.73;101807.88;6052813;19;20705;-69
2023/05/05 06:33:42;;;;;;;34.53;18.27;;;;;;;16.01;78.10;101805.00;6050156;19;20436;-69
2023/05/05 06:35:48;;;;;;;36.92;19.08;;;;;;;15.98;78.34;101805.16;6052581;19;20002;-69
2023/05/05 06:37:53;;;;;;;35.10;17.38;;;;;;;16.02;77.87;101805.88;6053903;19;20573;-69
2023/05/05 06:39:58;;;;;;;35.58;17.98;;;;;;;16.19;77.15;101805.91;6058045;19;20014;-69
2023/05/05 06:42:12;;;;;;;33.33;17.45;;;;;;;16.44;76.24;101813.50;6062670;19;20200;-69
2023/05/05 06:44:17;;;;;;;38.15;17.20;;;;;;;16.54;76.58;101811.28;6056157;19;20602;-69
2023/05/05 06:46:22;;;;;;;37.03;17.83;;;;;;;16.73;75.70;101815.66;6053691;19;20544;-70
2023/05/05 06:48:28;;;;;;;39.85;18.15;;;;;;;16.82;74.82;101823.16;6057922;19;20239;-70
2023/05/05 06:50:34;;;;;;;34.67;17.67;;;;;;;17.02;74.82;101823.00;6060719;19;20230;-69
2023/05/05 06:52:41;;;;;;;31.67;16.48;;;;;;;16.99;74.96;101819.66;6060319;19;20316;-69
2023/05/05 06:54:46;;;;;;;33.97;18.10;;;;;;;16.84;74.87;101819.50;6061299;19;20104;-69
2023/05/05 06:56:52;;;;;;;34.50;15.82;;;;;;;16.71;75.31;101818.38;6060572;19;20609;-69
2023/05/05 06:59:00;;;;;;;31.55;14.95;;;;;;;16.84;75.01;101818.66;6055009;19;20010;-71
2023/05/05 07:01:05;;;;;;;28.27;13.73;;;;;;;16.89;74.49;101822.78;6057705;19;20014;-71
2023/05/05 07:03:11;;;;;;;26.17;12.45;;;;;;;16.83;73.16;101819.59;6063380;19;20504;-68
2023/05/05 07:05:16;;;;;;;23.92;11.18;;;;;;;17.11;72.48;101819.88;6059656;19;20301;-69
2023/05/05 07:07:22;;;;;;;24.88;11.25;;;;;;;17.48;71.12;101809.06;6054887;19;20046;-69
2023/05/05 07:09:30;;;;;;;25.13;12.60;;;;;;;18.17;69.49;101813.28;6054528;19;20007;-68
2023/05/05 07:11:36;;;;;;;22.55;11.25;;;;;;;18.88;69.54;101804.72;6051666;19;20513;-70
2023/05/05 07:13:42;;;;;;;24.40;11.93;;;;;;;19.00;67.47;101797.78;6055144;19;20182;-71
2023/05/05 07:15:50;;;;;;;22.75;12.43;;;;;;;18.84;67.93;101800.50;6050890;19;20083;-68
2023/05/05 07:17:55;;;;;;;20.77;11.05;;;;;;;17.98;68.18;101806.34;6054045;19;20018;-70
2023/05/05 07:20:01;;;;;;;20.80;11.30;;;;;;;17.89;68.96;101808.66;6050578;19;20491;-70
2023/05/05 07:22:07;;;;;;;18.98;10.57;;;;;;;18.11;68.60;101813.59;6045199;19;20216;-70
2023/05/05 07:24:12;;;;;;;21.63;10.25;;;;;;;18.01;69.32;101818.63;6043933;19;20019;-70
2023/05/05 07:26:18;;;;;;;24.05;11.27;;;;;;;18.07;68.42;101825.38;6049927;19;20182;-70
2023/05/05 07:28:23;;;;;;;20.85;10.52;;;;;;;17.52;68.89;101816.81;6049258;19;20002;-70
2023/05/05 07:30:29;;;;;;;22.23;10.73;;;;;;;17.55;69.72;101816.63;6049924;19;20328;-70
2023/05/05 07:32:38;;;;;;;20.05;9.15;;;;;;;17.49;70.03;101816.97;6047627;19;20196;-70
2023/05/05 07:34:43;;;;;;;24.70;10.50;;;;;;;17.48;69.59;101811.72;6050072;19;20679;-69
2023/05/05 07:36:48;;;;;;;20.00;10.00;;;;;;;17.56;69.55;101814.84;6048349;19;20499;-70
2023/05/05 07:38:54;;;;;;;21.90;10.45;;;;;;;17.85;70.02;101821.28;6049793;19;20395;-70
2023/05/05 07:40:59;;;;;;;26.10;11.55;;;;;;;17.83;69.47;101831.13;6047690;19;20349;-70
2023/05/05 07:43:05;;;;;;;19.67;9.98;;;;;;;17.45;67.91;101823.38;6043173;19;20230;-70
2023/05/05 07:45:11;;;;;;;17.73;8.25;;;;;;;17.57;68.27;101821.88;6043928;19;20516;-70
2023/05/05 07:47:16;;;;;;;17.08;9.23;;;;;;;17.59;68.19;101832.41;6051987;19;20324;-70
2023/05/05 07:49:25;;;;;;;17.80;9.55;;;;;;;17.58;68.73;101839.53;6054126;19;20384;-70
2023/05/05 07:51:31;;;;;;;19.77;10.35;;;;;;;17.41;68.38;101848.44;6052473;19;20040;-69
2023/05/05 07:53:38;;;;;;;24.70;11.40;;;;;;;17.34;69.49;101837.25;6042390;19;20090;-70
2023/05/05 07:55:44;;;;;;;21.75;10.02;;;;;;;17.55;69.48;101835.25;6052803;19;20111;-70
2023/05/05 07:57:49;;;;;;;21.30;10.32;;;;;;;17.62;68.47;101834.94;6045818;19;20007;-69
2023/05/05 07:59:55;;;;;;;21.63;10.80;;;;;;;17.38;69.63;101835.31;6050315;19;21072;-70
2023/05/05 08:02:01;;;;;;;19.00;9.32;;;;;;;17.71;69.65;101839.72;6071770;19;20285;-70
2023/05/05 08:04:07;;;;;;;23.63;9.25;;;;;;;17.72;68.53;101838.78;6071248;19;20007;-70
2023/05/05 08:06:20;;;;;;;20.35;10.07;;;;;;;17.65;69.29;101845.41;6065176;19;20274;-70
2023/05/05 08:08:26;;;;;;;17.10;8.82;;;;;;;17.60;68.83;101848.28;6058820;19;20394;-70
2023/05/05 08:10:32;;;;;;;14.95;8.75;;;;;;;17.80;69.11;101849.91;6064258;19;20544;-70
2023/05/05 08:12:38;;;;;;;21.13;8.45;;;;;;;17.91;67.93;101847.50;6076432;19;20445;-70
2023/05/05 08:14:44;;;;;;;14.40;6.88;;;;;;;18.03;66.93;101856.59;6059233;19;20249;-69
2023/05/05 08:16:49;;;;;;;14.02;6.65;;;;;;;18.12;66.86;101860.56;6055189;19;20044;-70
2023/05/05 08:18:55;;;;;;;19.27;6.82;;;;;;;18.51;65.93;101859.22;6055555;19;20351;-70
2023/05/05 08:21:00;;;;;;;12.40;6.68;;;;;;;18.38;65.28;101851.13;6052572;19;20014;-70
2023/05/05 08:23:08;;;;;;;12.57;6.45;;;;;;;18.26;65.07;101857.97;6055084;19;20014;-70
2023/05/05 08:25:14;;;;;;;16.08;6.18;;;;;;;18.29;64.80;101860.44;6058671;19;20014;-70
2023/05/05 08:27:23;;;;;;;10.90;5.30;;;;;;;18.36;65.04;101863.63;6055074;19;20336;-70
2023/05/05 08:29:31;;;;;;;13.48;5.82;;;;;;;17.86;65.22;101857.53;6042042;19;20334;-70
2023/05/05 08:31:38;;;;;;;13.13;5.68;;;;;;;18.17;65.69;101853.19;6047213;19;20492;-70
2023/05/05 08:33:43;;;;;;;11.75;5.07;;;;;;;18.26;64.70;101862.44;6050511;19;20443;-70
2023/05/05 08:35:50;;;;;;;12.60;5.38;;;;;;;18.32;64.92;101857.63;6046947;19;20547;-71
2023/05/05 08:37:55;;;;;;;9.80;5.13;;;;;;;18.12;65.23;101860.56;6044226;19;20040;-70
2023/05/05 08:40:07;;;;;;;13.07;6.22;;;;;;;17.97;65.90;101865.78;6043880;19;20556;-71
2023/05/05 08:42:12;;;;;;;12.25;5.82;;;;;;;17.90;65.91;101859.06;6046306;19;20685;-70
2023/05/05 08:44:36;;;;;;;13.23;6.22;;;;;;;17.98;66.32;101859.53;6050896;19;20663;-70
2023/05/05 08:46:44;;;;;;;12.18;6.40;;;;;;;18.23;65.69;101854.63;6047374;19;20023;-70
2023/05/05 08:48:50;;;;;;;11.88;5.38;;;;;;;18.40;64.75;101858.06;6045169;19;20016;-70
2023/05/05 08:50:59;;;;;;;9.65;4.40;;;;;;;18.54;64.19;101857.25;6043204;19;20003;-70
2023/05/05 08:53:12;;;;;;;12.77;4.45;;;;;;;18.77;63.05;101855.06;6039786;19;20289;-70
2023/05/05 08:55:26;;;;;;;9.40;3.53;;;;;;;18.65;63.56;101859.28;6042183;19;20033;-71
2023/05/05 08:57:41;;;;;;;11.73;3.58;;;;;;;18.57;62.14;101857.09;6041794;19;20014;-70
2023/05/05 08:59:46;;;;;;;8.60;3.10;;;;;;;18.60;62.98;101864.03;6041975;19;20439;-72
2023/05/05 09:01:53;;;;;;;6.57;2.58;;;;;;;18.69;63.16;101867.94;6050162;19;20015;-73
2023/05/05 09:04:00;;;;;;;8.73;3.10;;;;;;;18.17;63.65;101870.00;6035054;19;20287;-71
2023/05/05 09:06:06;;;;;;;7.15;3.05;;;;;;;18.51;63.62;101873.41;6045351;19;20379;-72
2023/05/05 09:08:12;;;;;;;7.68;3.13;;;;;;;18.12;63.28;101881.84;6037386;19;20507;-71
2023/05/05 09:10:17;;;;;;;10.48;2.90;;;;;;;18.13;63.51;101873.75;6033805;19;20503;-71
2023/05/05 09:12:25;;;;;;;8.07;2.80;;;;;;;18.19;63.77;101875.22;6035223;19;20370;-72
2023/05/05 09:14:31;;;;;;;7.57;3.05;;;;;;;18.29;63.27;101883.56;6035493;19;20030;-71
2023/05/05 09:16:36;;;;;;;9.05;3.13;;;;;;;18.27;63.44;101872.97;6033408;19;20300;-72
2023/05/05 09:18:44;;;;;;;6.32;2.58;;;;;;;18.01;63.58;101876.25;6037099;19;20521;-71
2023/05/05 09:20:49;;;;;;;4.20;2.05;;;;;;;18.12;62.61;101873.88;6038891;19;20010;-71
2023/05/05 09:22:56;;;;;;;5.43;2.35;;;;;;;18.30;62.97;101870.19;6057516;19;20010;-71
2023/05/05 09:25:02;;;;;;;8.15;2.38;;;;;;;18.05;62.98;101883.13;6085542;19;20401;-71
2023/05/05 09:27:25;;;;;;;11.20;3.75;;;;;;;17.89;62.84;101875.97;6088309;19;20030;-71
2023/05/05 09:29:31;;;;;;;6.05;2.30;;;;;;;18.04;63.37;101884.94;6091422;19;20021;-71
2023/05/05 09:31:38;;;;;;;7.38;2.33;;;;;;;17.64;66.98;101879.09;6090847;19;20465;-69
2023/05/05 09:33:43;;;;;;;8.00;3.15;;;;;;;17.82;68.10;101877.25;6088770;19;20142;-70
2023/05/05 09:35:52;;;;;;;6.55;2.65;;;;;;;17.63;69.82;101879.16;6089174;19;20007;-72
2023/05/05 09:37:58;;;;;;;4.63;2.33;;;;;;;17.38;70.18;101883.13;6083810;19;20378;-72
2023/05/05 09:40:04;;;;;;;10.52;3.25;;;;;;;17.40;70.41;101891.00;6085877;19;20010;-71
2023/05/05 09:42:19;;;;;;;4.72;2.30;;;;;;;17.00;71.45;101890.41;6081729;19;20583;-70
2023/05/05 09:44:38;;;;;;;8.27;2.55;;;;;;;16.97;73.12;101895.88;6088884;19;20112;-70
2023/05/05 09:46:54;;;;;;;4.72;2.22;;;;;;;16.99;73.78;101899.31;6092436;19;20032;-70